createdAt,value
2022-10-14T00:02:53.057Z,18
2022-10-14T00:07:53.047Z,17.81
2022-10-14T00:12:53.030Z,15.85
2022-10-14T00:17:53.057Z,15.97
2022-10-14T00:22:53.061Z,17.76
2022-10-14T00:27:53.057Z,18.97
2022-10-14T00:32:53.082Z,15.24
2022-10-14T00:37:53.065Z,17.65
2022-10-14T00:42:53.090Z,15.84
2022-10-14T00:47:53.073Z,17.03
2022-10-14T00:52:53.063Z,16.64
2022-10-14T00:57:53.067Z,16.36
2022-10-14T01:02:53.074Z,14.93
2022-10-14T01:07:53.100Z,15.6
2022-10-14T01:12:53.067Z,14.59
2022-10-14T01:17:53.098Z,12.57
2022-10-14T01:22:53.075Z,14.34
2022-10-14T01:27:53.079Z,15.69
2022-10-14T01:32:53.075Z,13.73
2022-10-14T01:37:53.111Z,12.47
2022-10-14T01:42:53.079Z,12.06
2022-10-14T01:47:53.092Z,11.1
2022-10-14T01:52:53.079Z,11.66
2022-10-14T01:57:53.095Z,12.64
2022-10-14T02:02:53.092Z,11.63
2022-10-14T02:07:53.096Z,10.28
2022-10-14T02:12:53.094Z,10.69
2022-10-14T02:17:53.100Z,12.42
2022-10-14T02:22:53.111Z,13.19
2022-10-14T02:27:53.091Z,10.66
2022-10-14T02:32:53.124Z,12.84
2022-10-14T02:37:53.093Z,12.27
2022-10-14T02:42:53.093Z,11.72
2022-10-14T02:47:53.100Z,11.17
2022-10-14T02:52:53.106Z,10.68
2022-10-14T02:57:53.136Z,9.46
2022-10-14T03:02:53.118Z,10.01
2022-10-14T03:07:53.103Z,9.89
2022-10-14T03:12:53.107Z,9.63
2022-10-14T03:17:53.118Z,9.52
2022-10-14T03:22:53.141Z,9.44
2022-10-14T03:27:53.110Z,9.92
2022-10-14T03:32:53.121Z,11.73
2022-10-14T03:37:53.119Z,12.74
2022-10-14T03:42:53.120Z,14.13
2022-10-14T03:47:53.123Z,13.99
2022-10-14T03:52:55.519Z,15.24
2022-10-14T03:57:53.125Z,16.46
2022-10-14T04:02:53.158Z,15.96
2022-10-14T04:07:53.147Z,16.76
2022-10-14T04:12:53.140Z,17.07
2022-10-14T04:17:53.130Z,16.53
2022-10-14T04:22:53.162Z,15.09
2022-10-14T04:27:53.138Z,15.31
2022-10-14T04:32:53.172Z,15
2022-10-14T04:37:53.150Z,16.14
2022-10-14T04:42:53.172Z,16.62
2022-10-14T04:47:53.154Z,16.9
2022-10-14T04:52:53.144Z,16.1
2022-10-14T04:57:53.159Z,16.47
2022-10-14T05:02:53.180Z,14.9
2022-10-14T05:07:53.183Z,11.42
2022-10-14T05:12:53.176Z,14.02
2022-10-14T05:17:53.189Z,15.13
2022-10-14T05:22:53.152Z,14.53
2022-10-14T05:27:53.155Z,14.68
2022-10-14T05:32:53.183Z,14.84
2022-10-14T05:37:53.159Z,14.97
2022-10-14T05:42:53.190Z,14.61
2022-10-14T05:47:53.162Z,14.33
2022-10-14T05:52:53.166Z,16.51
2022-10-14T05:57:53.174Z,17.44
2022-10-14T06:02:53.277Z,16.64
2022-10-14T06:07:53.224Z,15.58
2022-10-14T06:12:53.206Z,15.06
2022-10-14T06:17:53.182Z,14.98
2022-10-14T06:22:53.199Z,14.97
2022-10-14T06:27:53.193Z,14.03
2022-10-14T06:32:53.188Z,13.64
2022-10-14T06:37:53.198Z,13.33
2022-10-14T06:42:53.198Z,12.82
2022-10-14T06:47:53.194Z,13.68
2022-10-14T06:52:53.175Z,14.12
2022-10-14T06:57:53.192Z,13.03
2022-10-14T07:02:53.192Z,13.67
2022-10-14T07:07:53.231Z,13.57
2022-10-14T07:12:53.190Z,12.11
2022-10-14T07:17:53.235Z,11.13
2022-10-14T07:22:53.205Z,9.67
2022-10-14T07:27:53.198Z,8.9
2022-10-14T07:32:53.194Z,8.04
2022-10-14T07:37:53.217Z,7.71
2022-10-14T07:42:53.213Z,6.87
2022-10-14T07:47:53.208Z,6.58
2022-10-14T07:52:54.910Z,5.94
2022-10-14T07:57:53.239Z,5.53
2022-10-14T08:02:53.221Z,5.47
2022-10-14T08:07:53.216Z,4.96
2022-10-14T08:12:53.222Z,4.74
2022-10-14T08:17:53.222Z,4.49
2022-10-14T08:22:53.235Z,4.23
2022-10-14T08:27:53.243Z,4.16
2022-10-14T08:32:53.288Z,4.44
2022-10-14T08:37:53.279Z,4.54
2022-10-14T08:42:53.274Z,4.48
2022-10-14T08:47:53.275Z,4.17
2022-10-14T08:52:53.267Z,4.16
2022-10-14T08:57:53.254Z,5.21
2022-10-14T09:02:53.284Z,5.11
2022-10-14T09:07:53.262Z,4.97
2022-10-14T09:12:53.251Z,4.63
2022-10-14T09:17:53.300Z,4.74
2022-10-14T09:22:53.324Z,4.96
2022-10-14T09:27:53.256Z,5.26
2022-10-14T09:32:53.265Z,5.16
2022-10-14T09:42:53.261Z,5.77
2022-10-14T09:47:53.272Z,5.37
2022-10-14T09:52:53.265Z,5.72
2022-10-14T09:57:53.277Z,5.6
2022-10-14T10:02:53.307Z,4.93
2022-10-14T10:07:53.282Z,5.17
2022-10-14T10:12:53.278Z,5.69
2022-10-14T10:17:53.284Z,6.42
2022-10-14T10:22:53.310Z,6.52
2022-10-14T10:27:53.332Z,6
2022-10-14T10:32:53.323Z,6.68
2022-10-14T10:37:53.340Z,5.89
2022-10-14T10:42:53.293Z,6.88
2022-10-14T10:47:53.319Z,6.5
2022-10-14T10:52:53.326Z,6.31
2022-10-14T10:57:53.324Z,6.13
2022-10-14T11:02:53.322Z,5.76
2022-10-14T11:07:53.329Z,5.38
2022-10-14T11:12:53.332Z,5.43
2022-10-14T11:17:53.374Z,6.35
2022-10-14T11:22:53.344Z,6.39
2022-10-14T11:27:53.369Z,6.71
2022-10-14T11:32:53.328Z,6.56
2022-10-14T11:37:53.360Z,5.99
2022-10-14T11:42:53.336Z,5.84
2022-10-14T11:47:53.326Z,4.87
2022-10-14T11:52:53.324Z,4.36
2022-10-14T11:57:53.362Z,4.82
2022-10-14T12:02:53.404Z,3.81
2022-10-14T12:07:53.339Z,4.27
2022-10-14T12:12:53.347Z,5.13
2022-10-14T12:17:53.348Z,4.55
2022-10-14T12:22:53.356Z,6.05
2022-10-14T12:27:53.410Z,4.13
2022-10-14T12:32:53.364Z,3.56
2022-10-14T12:37:53.379Z,3.71
2022-10-14T12:42:53.668Z,3.23
2022-10-14T12:47:53.395Z,3.75
2022-10-14T12:52:53.365Z,4.92
2022-10-14T12:57:53.373Z,4.05
2022-10-14T13:02:53.397Z,3.87
2022-10-14T13:07:53.377Z,4.17
2022-10-14T13:12:53.395Z,4.17
2022-10-14T13:17:53.422Z,4.63
2022-10-14T13:22:53.392Z,4.49
2022-10-14T13:27:53.435Z,4.61
2022-10-14T13:32:53.407Z,4.46
2022-10-14T13:37:53.396Z,4.55
2022-10-14T13:42:53.432Z,4.32
2022-10-14T13:47:53.410Z,5.08
2022-10-14T13:52:53.444Z,4.61
2022-10-14T13:58:11.846Z,5.63
2022-10-14T14:02:55.819Z,4.95
2022-10-14T14:08:30.497Z,4.6
2022-10-14T14:12:53.418Z,3.99
2022-10-14T14:17:53.448Z,3.81
2022-10-14T14:22:53.416Z,3.89
2022-10-14T14:27:53.413Z,3.78
2022-10-14T14:32:53.423Z,3.46
2022-10-14T14:37:55.949Z,3.6
2022-10-14T14:42:53.444Z,3.8
2022-10-14T14:47:53.431Z,4.08
2022-10-14T14:52:53.515Z,5.27
2022-10-14T14:57:53.475Z,4.92
2022-10-14T15:02:53.452Z,5.13
2022-10-14T15:07:53.451Z,5.22
2022-10-14T15:12:53.454Z,6.16
2022-10-14T15:17:53.443Z,6.62
2022-10-14T15:22:53.453Z,6.33
2022-10-14T15:27:53.465Z,6.76
2022-10-14T15:32:53.455Z,6.82
2022-10-14T15:37:53.457Z,6.93
2022-10-14T15:42:53.469Z,7.4
2022-10-14T15:47:53.545Z,7.05
2022-10-14T15:52:53.471Z,7
2022-10-14T15:57:53.483Z,6.68
2022-10-14T16:02:53.486Z,6.57
2022-10-14T16:07:53.518Z,7.3
2022-10-14T16:12:53.487Z,11.52
2022-10-14T16:17:53.502Z,11.29
2022-10-14T16:22:53.503Z,14.53
2022-10-14T16:27:53.493Z,20.22
2022-10-14T16:32:53.523Z,17.28
2022-10-14T16:37:53.515Z,12.41
2022-10-14T16:42:53.522Z,21.51
2022-10-14T16:47:53.486Z,147.15
2022-10-14T16:52:53.502Z,59.66
2022-10-14T16:57:53.512Z,25.32
2022-10-14T17:02:53.498Z,25.71
2022-10-14T17:07:53.497Z,23.16
2022-10-14T17:12:53.529Z,19.07
2022-10-14T17:17:53.503Z,14.43
2022-10-14T17:22:53.516Z,11.09
2022-10-14T17:27:53.540Z,9.29
2022-10-14T17:32:53.503Z,49.33
2022-10-14T17:37:53.513Z,35.07
2022-10-14T17:42:53.512Z,9.81
2022-10-14T17:47:53.517Z,7.15
2022-10-14T17:52:53.514Z,7.68
2022-10-14T17:57:53.525Z,7.86
2022-10-14T18:02:53.526Z,7.64
2022-10-14T18:07:53.526Z,10.03
2022-10-14T18:12:53.521Z,33.39
2022-10-14T18:17:53.542Z,41.85
2022-10-14T18:22:53.599Z,28.81
2022-10-14T18:27:53.536Z,32.86
2022-10-14T18:32:53.536Z,32.04
2022-10-14T18:37:53.540Z,25.38
2022-10-14T18:42:53.543Z,28.77
2022-10-14T18:47:53.546Z,33.28
2022-10-14T18:52:53.555Z,23.83
2022-10-14T18:57:53.558Z,19.07
2022-10-14T19:02:53.596Z,11
2022-10-14T19:07:53.574Z,33.02
2022-10-14T19:12:53.551Z,91.24
2022-10-14T19:17:53.729Z,81.1
2022-10-14T19:22:56.520Z,85.61
2022-10-14T19:27:53.574Z,76.38
2022-10-14T19:32:53.577Z,57.96
2022-10-14T19:37:53.570Z,53.74
2022-10-14T19:42:53.579Z,40.53
2022-10-14T19:47:53.578Z,42.93
2022-10-14T19:52:53.574Z,29.18
2022-10-14T19:57:53.580Z,13.06
2022-10-14T20:02:53.585Z,12.42
2022-10-14T20:07:53.624Z,11.5
2022-10-14T20:12:53.599Z,11.74
2022-10-14T20:17:53.591Z,9.5
2022-10-14T20:22:53.586Z,10.7
2022-10-14T20:27:53.633Z,11.91
2022-10-14T20:32:53.624Z,24.01
2022-10-14T20:37:53.594Z,26.47
2022-10-14T20:42:53.615Z,24.91
2022-10-14T20:47:53.846Z,23.41
2022-10-14T20:52:53.608Z,21.6
2022-10-14T20:57:53.630Z,18.39
2022-10-14T21:02:53.606Z,18.41
2022-10-14T21:07:53.618Z,18.06
2022-10-14T21:12:53.665Z,16.37
2022-10-14T21:17:53.619Z,18.24
2022-10-14T21:23:39.181Z,14.98
2022-10-14T21:28:39.217Z,11.94
2022-10-14T21:33:39.197Z,11.07
2022-10-14T21:38:39.203Z,10.81
2022-10-14T21:43:39.186Z,10.89
2022-10-14T21:48:39.208Z,11.34
2022-10-14T21:53:39.227Z,17.55
2022-10-14T21:58:39.193Z,15.9
2022-10-14T22:03:39.209Z,10.54
2022-10-14T22:08:39.218Z,9.57
2022-10-14T22:18:39.211Z,9.35
2022-10-14T22:23:39.238Z,9.4
2022-10-14T22:28:39.239Z,9.48
2022-10-14T22:33:39.218Z,9.08
2022-10-14T22:38:39.203Z,9.46
2022-10-14T22:43:39.210Z,9.36
2022-10-14T22:48:39.218Z,9.67
2022-10-14T22:53:39.227Z,9.72
2022-10-14T22:58:39.230Z,10.13
2022-10-14T23:03:39.233Z,10.16
2022-10-14T23:08:39.250Z,10.52
2022-10-14T23:13:39.238Z,10.48
2022-10-14T23:18:39.359Z,10.28
2022-10-14T23:23:39.230Z,10.18
2022-10-14T23:28:39.370Z,9.25
2022-10-14T23:33:39.242Z,8.84
2022-10-14T23:38:39.242Z,8.92
2022-10-14T23:43:39.289Z,9.02
2022-10-14T23:48:39.241Z,10.95
2022-10-14T23:53:39.271Z,13.04
2022-10-14T23:58:39.265Z,12.91
